< < Back
Terminal Aerodrome Forecast


Current Version              Previous Versions:   1  2  3  4  5  6  7  8  9  

Terminal Aerodrome Forecast

891
FTUS42 KTAE 172300
TAFTLH
TAF
KTLH 172320Z 1800/1824 31004KT P6SM SCT250=



Latest METAR

882
SAUS80 KWBC 180900 RRA
MTRTLH
METAR KTLH 180853Z AUTO 00000KT 10SM CLR 06/03 A3015 RMK AO2 SLP209
T00560028 58001 $


USA.gov is the U.S. government's official web portal to all federal, state and local government web resources and services.